createdAt,value
2023-03-07T00:03:57.861Z,641.98955
2023-03-07T00:08:59.672Z,640.14505
2023-03-07T00:14:01.458Z,601.96945
2023-03-07T00:19:03.077Z,587.52905
2023-03-07T00:24:04.733Z,560.0687
2023-03-07T00:29:06.380Z,538.25215
2023-03-07T00:34:08.194Z,495.7429
2023-03-07T00:39:09.808Z,429.49845
2023-03-07T00:44:11.626Z,371.75585
2023-03-07T00:49:13.508Z,327.23665
2023-03-07T00:54:15.366Z,291.51405
2023-03-07T00:59:16.980Z,260.56815
2023-03-07T01:04:18.625Z,220.8808
2023-03-07T01:09:20.233Z,195.7993
2023-03-07T01:14:21.881Z,160.15085
2023-03-07T01:19:23.643Z,124.44725
2023-03-07T01:24:25.299Z,99.86395
2023-03-07T01:29:26.956Z,75.7047
2023-03-07T01:34:28.571Z,53.814
2023-03-07T01:39:30.148Z,36.01735
2023-03-07T01:44:31.832Z,22.07515
2023-03-07T01:49:33.517Z,9.6637
2023-03-07T01:54:35.132Z,4.83185
2023-03-07T01:59:36.780Z,1.3463
2023-03-07T02:04:38.474Z,1.16185
2023-03-07T02:09:40.125Z,0
2023-03-07T02:14:41.742Z,0
2023-03-07T02:19:43.476Z,0
2023-03-07T02:24:45.069Z,0
2023-03-07T02:29:47.138Z,0
2023-03-07T02:34:49.405Z,0
2023-03-07T02:39:51.490Z,0
2023-03-07T02:44:53.704Z,0
2023-03-07T02:49:55.850Z,0
2023-03-07T02:54:58.027Z,0
2023-03-07T03:00:00.395Z,0
2023-03-07T03:05:02.734Z,0
2023-03-07T03:10:04.970Z,0
2023-03-07T03:15:06.864Z,0
2023-03-07T03:20:08.571Z,0
2023-03-07T03:25:10.582Z,0
2023-03-07T03:30:12.974Z,0
2023-03-07T03:35:15.305Z,0
2023-03-07T03:40:17.731Z,0
2023-03-07T03:45:19.894Z,0
2023-03-07T03:50:22.147Z,0
2023-03-07T03:55:24.327Z,0
2023-03-07T04:00:26.470Z,0
2023-03-07T04:05:28.726Z,0
2023-03-07T04:10:30.809Z,0
2023-03-07T04:15:33.073Z,0
2023-03-07T04:20:35.216Z,0
2023-03-07T04:25:38.226Z,0
2023-03-07T04:30:40.239Z,0
2023-03-07T04:35:42.213Z,0
2023-03-07T04:40:44.172Z,0
2023-03-07T04:45:45.904Z,0
2023-03-07T04:50:47.615Z,0
2023-03-07T04:55:49.238Z,0
2023-03-07T05:00:50.889Z,0
2023-03-07T05:05:52.527Z,0
2023-03-07T05:10:54.172Z,0
2023-03-07T05:15:55.748Z,0
2023-03-07T05:20:57.489Z,0
2023-03-07T05:25:59.165Z,0
2023-03-07T05:31:00.770Z,0
2023-03-07T05:36:02.505Z,0
2023-03-07T05:41:04.155Z,0
2023-03-07T05:46:05.855Z,0
2023-03-07T05:51:07.446Z,0
2023-03-07T05:56:09.083Z,0
2023-03-07T06:01:10.673Z,0
2023-03-07T06:06:12.582Z,0
2023-03-07T06:11:14.183Z,0
2023-03-07T06:16:15.856Z,0
2023-03-07T06:21:17.525Z,0
2023-03-07T06:26:19.198Z,0
2023-03-07T06:31:20.918Z,0
2023-03-07T06:36:22.573Z,0
2023-03-07T06:41:24.257Z,0
2023-03-07T06:46:25.919Z,0
2023-03-07T06:51:27.563Z,0
2023-03-07T06:56:29.186Z,0
2023-03-07T07:01:30.883Z,0
2023-03-07T07:06:32.509Z,0
2023-03-07T07:11:34.142Z,0
2023-03-07T07:16:35.780Z,0
2023-03-07T07:21:37.529Z,0
2023-03-07T07:26:39.161Z,0
2023-03-07T07:31:40.945Z,0
2023-03-07T07:36:42.856Z,0
2023-03-07T07:41:44.495Z,0
2023-03-07T07:46:46.127Z,0
2023-03-07T07:51:47.736Z,0
2023-03-07T07:56:49.494Z,0
2023-03-07T08:01:51.198Z,0
2023-03-07T08:06:52.778Z,0
2023-03-07T08:11:54.505Z,0
2023-03-07T08:16:56.139Z,0
2023-03-07T08:21:57.884Z,0
2023-03-07T08:26:59.523Z,0
2023-03-07T08:32:01.175Z,0
2023-03-07T08:37:02.855Z,0
2023-03-07T08:42:04.673Z,0
2023-03-07T08:47:06.340Z,0
2023-03-07T08:52:07.985Z,0
2023-03-07T08:57:09.616Z,0
2023-03-07T09:02:11.287Z,0
2023-03-07T09:07:13.187Z,0
2023-03-07T09:12:15.028Z,0
2023-03-07T09:17:16.631Z,0
2023-03-07T09:22:18.340Z,0
2023-03-07T09:27:19.965Z,0
2023-03-07T09:32:21.528Z,0
2023-03-07T09:37:23.223Z,0
2023-03-07T09:42:24.869Z,0
2023-03-07T09:47:26.490Z,0
2023-03-07T09:52:28.279Z,0
2023-03-07T09:57:29.905Z,0
2023-03-07T10:02:31.551Z,0
2023-03-07T10:07:33.297Z,0
2023-03-07T10:12:34.879Z,0
2023-03-07T10:17:36.570Z,0
2023-03-07T10:22:38.217Z,0
2023-03-07T10:27:39.873Z,0
2023-03-07T10:32:41.567Z,0
2023-03-07T10:37:43.220Z,0
2023-03-07T10:42:44.857Z,0
2023-03-07T10:47:46.558Z,0
2023-03-07T10:52:48.217Z,0
2023-03-07T10:57:49.843Z,0
2023-03-07T11:02:51.513Z,0
2023-03-07T11:07:53.387Z,0
2023-03-07T11:12:55.238Z,0
2023-03-07T11:17:56.977Z,0
2023-03-07T11:22:58.894Z,0
2023-03-07T11:28:00.551Z,0
2023-03-07T11:33:02.242Z,0
2023-03-07T11:38:03.930Z,0
2023-03-07T11:43:05.528Z,0
2023-03-07T11:48:07.280Z,0
2023-03-07T11:53:08.901Z,0
2023-03-07T11:58:10.555Z,0
2023-03-07T12:03:12.161Z,0
2023-03-07T12:08:13.800Z,0
2023-03-07T12:13:15.386Z,0
2023-03-07T12:18:16.994Z,0
2023-03-07T12:23:18.665Z,0
2023-03-07T12:28:20.997Z,0
2023-03-07T12:33:23.185Z,0
2023-03-07T12:38:25.880Z,0
2023-03-07T12:43:27.592Z,0
2023-03-07T12:48:29.272Z,0
2023-03-07T12:53:30.875Z,0
2023-03-07T12:58:32.532Z,0
2023-03-07T13:03:34.171Z,0
2023-03-07T13:08:35.797Z,0
2023-03-07T13:13:37.427Z,0
2023-03-07T13:18:39.149Z,0
2023-03-07T13:23:41.028Z,0
2023-03-07T13:28:42.777Z,0
2023-03-07T13:33:44.390Z,0
2023-03-07T13:38:46.053Z,0
2023-03-07T13:43:48.057Z,0
2023-03-07T13:48:49.698Z,0
2023-03-07T13:53:51.315Z,0
2023-03-07T13:58:53.109Z,0
2023-03-07T14:03:54.764Z,2.3237
2023-03-07T14:08:56.463Z,5.80925
2023-03-07T14:13:58.212Z,3.24595
2023-03-07T14:18:59.805Z,19.75145
2023-03-07T14:24:01.456Z,29.2307
2023-03-07T14:29:03.135Z,44.1503
2023-03-07T14:34:04.795Z,57.66845
2023-03-07T14:39:06.396Z,75.28065
2023-03-07T14:44:08.031Z,93.6858
2023-03-07T14:49:09.790Z,112.6443
2023-03-07T14:54:11.453Z,141.08205
2023-03-07T14:59:26.113Z,166.5876
2023-03-07T15:04:29.638Z,209.70535
2023-03-07T15:09:31.322Z,231.7805
2023-03-07T15:14:33.042Z,261.80415
2023-03-07T15:19:34.647Z,300.7537
2023-03-07T15:24:36.249Z,339.4085
2023-03-07T15:29:37.895Z,374.5226
2023-03-07T15:34:39.514Z,426.32665
2023-03-07T15:39:41.211Z,475.1985
2023-03-07T15:44:42.849Z,526.39405
2023-03-07T15:49:44.620Z,585.2985
2023-03-07T15:54:46.332Z,675.64705
2023-03-07T15:59:47.982Z,759.1538
2023-03-07T16:04:49.626Z,879.72945
2023-03-07T16:09:51.272Z,1000.48955
2023-03-07T16:14:52.968Z,1094.56325
2023-03-07T16:19:54.619Z,1148.50655
2023-03-07T16:24:56.242Z,1176.26165
2023-03-07T16:29:57.889Z,1523.0537
2023-03-07T16:34:59.495Z,1325.14575
2023-03-07T16:40:01.404Z,1409.81435
2023-03-07T16:45:03.113Z,1422.64985
2023-03-07T16:50:04.724Z,1486.03625
2023-03-07T16:55:06.330Z,1590.75105
2023-03-07T17:00:08.015Z,1402.52765
2023-03-07T17:05:09.641Z,1300.20885
2023-03-07T17:10:11.233Z,1340.70815
2023-03-07T17:15:12.893Z,1516.86815
2023-03-07T17:20:14.546Z,1464.8055
2023-03-07T17:25:16.162Z,1428.714
2023-03-07T17:30:17.804Z,1473.78655
2023-03-07T17:35:19.513Z,1495.1239
2023-03-07T17:40:21.420Z,1497.85265
2023-03-07T17:45:23.128Z,1537.6693
2023-03-07T17:50:24.763Z,1612.47075
2023-03-07T17:55:26.401Z,1811.573
2023-03-07T18:00:28.132Z,1943.2138
2023-03-07T18:05:29.824Z,2018.5686
2023-03-07T18:10:31.489Z,2042.5434
2023-03-07T18:15:33.242Z,1945.22375
2023-03-07T18:20:34.825Z,2040.88335
2023-03-07T18:25:36.473Z,1903.323
2023-03-07T18:30:38.117Z,1860.2604
2023-03-07T18:35:39.815Z,1840.98815
2023-03-07T18:40:41.655Z,1778.59815
2023-03-07T18:45:43.299Z,1840.61925
2023-03-07T18:50:44.917Z,1949.61255
2023-03-07T18:55:46.600Z,2163.3948
2023-03-07T19:00:48.312Z,2130.76985
2023-03-07T19:05:49.912Z,2022.0713
2023-03-07T19:10:51.527Z,1933.2725
2023-03-07T19:15:53.198Z,2059.4178
2023-03-07T19:20:54.830Z,2880.45365
2023-03-07T19:25:56.448Z,2487.6135
2023-03-07T19:30:58.102Z,2628.975
2023-03-07T19:35:59.799Z,2606.66025
2023-03-07T19:41:01.495Z,2316.13705
2023-03-07T19:46:03.351Z,2197.42305
2023-03-07T19:51:05.082Z,2167.1218
2023-03-07T19:56:06.771Z,2605.719
2023-03-07T20:01:08.607Z,2384.4846
2023-03-07T20:06:10.373Z,2292.14325
2023-03-07T20:11:12.038Z,2336.71575
2023-03-07T20:16:13.981Z,2436.78315
2023-03-07T20:21:15.662Z,2592.89695
2023-03-07T20:26:17.325Z,2350.0666
2023-03-07T20:31:19.063Z,2292.48945
2023-03-07T20:36:20.734Z,2280.4279
2023-03-07T20:41:22.402Z,2255.29125
2023-03-07T20:46:24.043Z,2135.3431
2023-03-07T20:51:25.789Z,2050.3246
2023-03-07T20:56:27.520Z,2109.0446
2023-03-07T21:01:29.194Z,2175.4735
2023-03-07T21:06:30.901Z,2189.1761
2023-03-07T21:11:32.657Z,2334.1506
2023-03-07T21:16:34.356Z,2390.36245
2023-03-07T21:21:35.994Z,2341.3803
2023-03-07T21:26:37.597Z,2585.84985
2023-03-07T21:31:39.343Z,2494.35845
2023-03-07T21:36:41.032Z,2678.81685
2023-03-07T21:41:42.710Z,2671.0718
2023-03-07T21:46:44.367Z,2215.4936
2023-03-07T21:51:46.199Z,2289.68655
2023-03-07T21:56:47.863Z,2170.9554
2023-03-07T22:01:49.795Z,2312.0013
2023-03-07T22:06:51.430Z,2163.7257
2023-03-07T22:11:53.144Z,1791.28535
2023-03-07T22:16:54.863Z,1602.76905
2023-03-07T22:21:56.537Z,1552.182
2023-03-07T22:26:58.385Z,1497.20615
2023-03-07T22:32:00.424Z,1481.3643
2023-03-07T22:37:02.278Z,1628.1643
2023-03-07T22:42:04.809Z,1357.02735
2023-03-07T22:47:06.641Z,1731.2209
2023-03-07T22:52:08.318Z,1461.15265
2023-03-07T22:57:09.932Z,1365.5482
2023-03-07T23:02:11.537Z,1176.1838
2023-03-07T23:07:13.156Z,1158.332
2023-03-07T23:12:14.800Z,1035.5068
2023-03-07T23:17:16.484Z,936.97015
2023-03-07T23:22:18.112Z,945.8409
2023-03-07T23:27:19.742Z,915.6328
2023-03-07T23:32:21.494Z,893.55765
2023-03-07T23:37:23.182Z,888.6345
2023-03-07T23:42:25.016Z,927.7152
2023-03-07T23:47:26.655Z,896.30725
2023-03-07T23:52:28.311Z,893.4302
2023-03-07T23:57:29.848Z,885.18695
